Time;durP1;ratioP1;P1;durP2;ratioP2;P2;SDS_P1;SDS_P2;PMS_P1;PMS_P2;Temp;Humidity;BMP_temperature;BMP_pressure;BME280_temperature;BME280_humidity;BME280_pressure;Samples;Min_cycle;Max_cycle;Signal;HPM_P1;HPM_P2
2021/11/23 00:01:16;;;;;;;12.63;4.97;;;;;;;5.04;100.00;102489.69;10167843;28;20070;-72
2021/11/23 00:06:15;;;;;;;14.25;5.88;;;;;;;5.07;100.00;102494.63;10167658;28;20056;-71
2021/11/23 00:11:11;;;;;;;16.83;5.95;;;;;;;5.15;100.00;102505.13;10161359;28;20073;-70
2021/11/23 00:16:08;;;;;;;13.30;5.25;;;;;;;5.13;100.00;102499.13;10151699;28;20083;-68
2021/11/23 00:21:04;;;;;;;12.68;6.03;;;;;;;5.13;100.00;102504.53;10152997;28;20415;-69
2021/11/23 00:26:01;;;;;;;9.85;6.05;;;;;;;5.11;100.00;102501.25;10151953;28;20480;-68
2021/11/23 00:30:58;;;;;;;10.57;5.85;;;;;;;5.16;100.00;102498.63;10161881;28;20476;-69
2021/11/23 00:35:54;;;;;;;15.25;6.65;;;;;;;5.26;100.00;102495.31;10155644;28;20062;-68
2021/11/23 00:40:53;;;;;;;15.63;7.55;;;;;;;5.31;100.00;102489.16;10150711;28;20097;-69
2021/11/23 00:45:49;;;;;;;14.93;7.50;;;;;;;5.35;100.00;102501.19;10156316;28;20531;-68
2021/11/23 00:50:49;;;;;;;24.77;8.40;;;;;;;5.40;100.00;102498.59;10159268;28;20042;-68
2021/11/23 00:55:46;;;;;;;15.63;6.82;;;;;;;5.48;100.00;102500.94;10159239;28;20069;-70
2021/11/23 01:00:43;;;;;;;16.45;8.90;;;;;;;5.56;100.00;102497.84;10148679;28;20089;-70
2021/11/23 01:05:40;;;;;;;11.88;7.22;;;;;;;5.58;100.00;102490.28;10165877;28;20042;-70
2021/11/23 01:10:36;;;;;;;10.63;6.95;;;;;;;5.67;100.00;102488.84;10166386;28;20050;-70
2021/11/23 01:15:33;;;;;;;10.23;6.30;;;;;;;5.67;100.00;102499.69;10170244;28;20046;-70
2021/11/23 01:20:30;;;;;;;12.27;7.18;;;;;;;5.73;100.00;102494.34;10154705;28;20062;-68
2021/11/23 01:25:27;;;;;;;12.10;8.02;;;;;;;5.77;100.00;102495.53;10157357;28;20580;-70
2021/11/23 01:30:24;;;;;;;12.32;7.75;;;;;;;5.85;100.00;102508.72;10166523;28;20042;-70
2021/11/23 01:35:20;;;;;;;15.90;8.93;;;;;;;5.93;100.00;102497.47;10165726;28;20104;-68
2021/11/23 01:40:17;;;;;;;14.32;8.48;;;;;;;5.94;100.00;102499.16;10160950;28;20799;-69
2021/11/23 01:45:14;;;;;;;17.98;9.77;;;;;;;5.97;100.00;102490.53;10155045;28;20062;-69
2021/11/23 01:50:12;;;;;;;15.98;11.50;;;;;;;5.93;100.00;102486.59;10153470;28;20045;-68
2021/11/23 01:55:10;;;;;;;20.67;10.90;;;;;;;6.03;100.00;102481.38;10165525;28;20050;-68
2021/11/23 02:00:09;;;;;;;17.75;11.35;;;;;;;6.11;100.00;102483.72;10161211;28;20116;-69
2021/11/23 02:05:06;;;;;;;18.58;10.68;;;;;;;6.19;100.00;102478.94;10149478;28;20105;-69
2021/11/23 02:10:06;;;;;;;25.35;11.80;;;;;;;6.25;100.00;102489.66;10170112;28;20132;-69
2021/11/23 02:15:05;;;;;;;22.00;11.40;;;;;;;6.29;100.00;102485.41;10147406;28;20050;-69
2021/11/23 02:20:03;;;;;;;17.92;11.07;;;;;;;6.29;100.00;102473.72;10162162;28;20124;-68
2021/11/23 02:25:00;;;;;;;22.52;11.88;;;;;;;6.37;100.00;102481.44;10148734;28;20466;-69
2021/11/23 02:29:56;;;;;;;17.38;10.35;;;;;;;6.43;100.00;102485.91;10150785;28;20045;-69
2021/11/23 02:34:53;;;;;;;15.48;10.05;;;;;;;6.48;100.00;102477.81;10162121;28;20101;-70
2021/11/23 02:39:49;;;;;;;14.27;10.40;;;;;;;6.50;100.00;102486.56;10145783;28;20102;-68
2021/11/23 02:44:46;;;;;;;15.27;9.63;;;;;;;6.58;100.00;102476.34;10158158;28;20065;-69
2021/11/23 02:49:42;;;;;;;15.27;9.75;;;;;;;6.50;100.00;102470.25;10165189;28;20050;-71
2021/11/23 02:54:52;;;;;;;16.67;8.70;;;;;;;6.53;100.00;102469.75;10165237;28;20124;-71
2021/11/23 02:59:49;;;;;;;16.25;8.73;;;;;;;6.55;100.00;102461.34;10158772;28;20129;-69
2021/11/23 03:04:51;;;;;;;18.90;9.95;;;;;;;6.56;100.00;102456.75;10139056;28;20065;-69
2021/11/23 03:09:47;;;;;;;16.02;10.55;;;;;;;6.62;100.00;102466.63;10159996;28;20038;-69
2021/11/23 03:14:44;;;;;;;22.33;11.02;;;;;;;6.64;100.00;102453.63;10160532;28;20589;-69
2021/11/23 03:19:41;;;;;;;14.27;10.63;;;;;;;6.66;100.00;102451.44;10169011;28;20492;-71
2021/11/23 03:24:38;;;;;;;16.08;9.63;;;;;;;6.62;100.00;102440.25;10148943;28;20130;-69
2021/11/23 03:29:35;;;;;;;17.45;9.75;;;;;;;6.65;100.00;102438.94;10142425;28;20560;-68
2021/11/23 03:34:37;;;;;;;16.90;9.65;;;;;;;6.62;100.00;102439.44;10163730;28;20050;-68
2021/11/23 03:39:34;;;;;;;19.25;10.52;;;;;;;6.56;100.00;102440.44;10146764;28;20150;-68
2021/11/23 03:44:31;;;;;;;18.45;10.25;;;;;;;6.55;100.00;102445.06;10159210;28;20511;-69
2021/11/23 03:49:27;;;;;;;17.45;10.07;;;;;;;6.61;100.00;102446.75;10166018;28;20073;-68
2021/11/23 03:54:25;;;;;;;21.70;9.98;;;;;;;6.62;100.00;102434.00;10153254;28;20038;-69
2021/11/23 03:59:21;;;;;;;17.20;10.38;;;;;;;6.51;100.00;102428.41;10158206;28;20042;-69
2021/11/23 04:04:18;;;;;;;16.50;12.45;;;;;;;6.42;100.00;102435.31;10150746;28;20081;-70
2021/11/23 04:09:14;;;;;;;19.35;11.77;;;;;;;6.40;100.00;102442.09;10164242;28;20126;-71
2021/11/23 04:14:10;;;;;;;19.13;11.65;;;;;;;6.31;100.00;102433.50;10159435;28;20042;-71
2021/11/23 04:19:07;;;;;;;18.70;10.98;;;;;;;6.26;100.00;102436.97;10161763;28;20034;-70
2021/11/23 04:24:04;;;;;;;18.73;11.65;;;;;;;6.24;100.00;102443.72;10164949;28;20042;-70
2021/11/23 04:29:00;;;;;;;27.55;13.77;;;;;;;6.22;100.00;102441.28;10159456;28;20073;-71
2021/11/23 04:33:57;;;;;;;24.95;13.90;;;;;;;6.25;100.00;102458.97;10162479;28;20081;-71
2021/11/23 04:38:53;;;;;;;27.63;15.30;;;;;;;6.28;100.00;102466.63;10162157;28;20133;-71
2021/11/23 04:43:50;;;;;;;31.52;17.52;;;;;;;6.28;100.00;102466.63;10155233;28;20505;-70
2021/11/23 04:48:47;;;;;;;34.28;17.85;;;;;;;6.33;100.00;102469.41;10158087;28;20055;-71
2021/11/23 04:53:43;;;;;;;32.83;17.63;;;;;;;6.42;100.00;102473.38;10166411;28;20077;-71
2021/11/23 04:58:40;;;;;;;40.22;18.75;;;;;;;6.46;100.00;102479.97;10169755;28;20193;-70
2021/11/23 05:03:37;;;;;;;33.22;17.15;;;;;;;6.53;100.00;102469.75;10142214;28;20075;-70
2021/11/23 05:08:34;;;;;;;29.98;15.45;;;;;;;6.56;100.00;102478.47;10163153;28;20097;-70
2021/11/23 05:13:31;;;;;;;33.28;16.90;;;;;;;6.60;100.00;102474.19;10166410;28;20047;-70
2021/11/23 05:18:27;;;;;;;47.15;18.15;;;;;;;6.60;100.00;102469.59;10165261;28;20125;-69
2021/11/23 05:23:23;;;;;;;35.45;16.35;;;;;;;6.59;100.00;102483.41;10129098;28;20042;-70
2021/11/23 05:28:20;;;;;;;27.10;13.82;;;;;;;6.61;100.00;102467.69;10131954;28;20085;-71
2021/11/23 05:33:18;;;;;;;32.17;16.00;;;;;;;6.65;100.00;102475.09;10131234;28;20055;-71
2021/11/23 05:38:18;;;;;;;34.15;16.30;;;;;;;6.71;100.00;102481.44;10151433;28;20547;-71
2021/11/23 05:43:15;;;;;;;30.13;14.40;;;;;;;6.76;100.00;102477.97;10139481;28;20038;-71
2021/11/23 05:48:12;;;;;;;26.35;11.38;;;;;;;6.81;100.00;102464.47;10141557;28;20057;-71
2021/11/23 05:53:08;;;;;;;22.13;10.32;;;;;;;6.78;100.00;102473.09;10140339;28;20066;-71
2021/11/23 05:58:05;;;;;;;27.27;11.05;;;;;;;6.78;100.00;102471.22;10135482;28;20054;-68
2021/11/23 06:03:01;;;;;;;21.95;8.07;;;;;;;6.68;100.00;102460.19;10143030;28;20459;-69
2021/11/23 06:07:58;;;;;;;21.45;8.13;;;;;;;6.66;100.00;102476.75;10135408;28;20081;-72
2021/11/23 06:12:54;;;;;;;24.85;9.30;;;;;;;6.68;100.00;102476.47;10136590;28;20109;-70
2021/11/23 06:17:58;;;;;;;22.85;7.97;;;;;;;6.74;100.00;102483.66;10141758;28;20038;-70
2021/11/23 06:22:59;;;;;;;22.85;8.20;;;;;;;6.79;100.00;102486.44;10141840;28;20101;-69
2021/11/23 06:27:56;;;;;;;17.77;7.97;;;;;;;6.82;100.00;102494.09;10131668;28;20612;-70
2021/11/23 06:32:52;;;;;;;16.17;8.38;;;;;;;6.80;100.00;102496.28;10139790;28;20078;-70
2021/11/23 06:37:52;;;;;;;18.30;6.18;;;;;;;6.79;100.00;102508.19;10140471;28;20050;-70
2021/11/23 06:42:49;;;;;;;17.30;6.10;;;;;;;6.78;100.00;102520.16;10155699;28;20066;-70
2021/11/23 06:47:46;;;;;;;16.85;6.05;;;;;;;6.82;100.00;102523.19;10140901;28;20042;-70
2021/11/23 06:52:42;;;;;;;13.80;4.57;;;;;;;6.83;100.00;102506.63;10144383;28;20113;-69
2021/11/23 06:57:39;;;;;;;14.57;4.38;;;;;;;6.92;100.00;102513.31;10161850;28;20066;-68
2021/11/23 07:02:36;;;;;;;13.07;5.47;;;;;;;6.91;100.00;102517.06;10147370;28;20472;-72
2021/11/23 07:07:32;;;;;;;12.07;4.22;;;;;;;6.89;100.00;102521.97;10164744;28;20050;-70
2021/11/23 07:12:29;;;;;;;13.23;4.00;;;;;;;6.81;100.00;102530.53;10162681;28;20064;-70
2021/11/23 07:17:26;;;;;;;16.80;3.70;;;;;;;6.76;100.00;102538.59;10164196;28;20069;-70
2021/11/23 07:22:22;;;;;;;11.82;4.13;;;;;;;6.76;100.00;102537.78;10138985;28;20078;-72
2021/11/23 07:27:19;;;;;;;13.35;3.78;;;;;;;6.70;100.00;102543.13;10136613;28;20042;-73
2021/11/23 07:32:15;;;;;;;16.90;4.55;;;;;;;6.73;100.00;102552.72;10138325;28;20042;-70
2021/11/23 07:37:12;;;;;;;15.65;4.47;;;;;;;6.73;100.00;102550.00;10137318;28;21911;-70
2021/11/23 07:42:08;;;;;;;19.85;5.13;;;;;;;6.77;100.00;102561.19;10140276;28;20077;-69
2021/11/23 07:47:06;;;;;;;15.43;5.28;;;;;;;6.79;100.00;102553.59;10136183;28;20038;-71
2021/11/23 07:52:03;;;;;;;16.92;4.35;;;;;;;6.80;100.00;102552.50;10159204;28;20660;-70
2021/11/23 07:57:00;;;;;;;15.73;4.00;;;;;;;6.78;100.00;102558.22;10159038;28;20074;-70
2021/11/23 08:01:56;;;;;;;15.10;3.97;;;;;;;6.80;100.00;102556.09;10150608;28;20129;-70
2021/11/23 08:06:53;;;;;;;21.23;4.65;;;;;;;6.78;100.00;102560.94;10153767;28;20491;-69
2021/11/23 08:11:50;;;;;;;14.30;3.38;;;;;;;6.79;100.00;102559.03;10150746;28;20069;-70
2021/11/23 08:16:46;;;;;;;20.20;4.03;;;;;;;6.79;100.00;102570.72;10141816;28;20077;-70
2021/11/23 08:21:43;;;;;;;20.63;4.40;;;;;;;6.79;100.00;102567.19;10159105;28;20092;-70
2021/11/23 08:26:39;;;;;;;19.98;3.60;;;;;;;6.74;100.00;102567.94;10165075;28;20074;-70
2021/11/23 08:31:36;;;;;;;9.73;2.67;;;;;;;6.76;100.00;102576.66;10156375;28;20130;-70
2021/11/23 08:36:34;;;;;;;11.52;2.65;;;;;;;6.80;100.00;102572.41;10149182;28;20086;-70
2021/11/23 08:41:30;;;;;;;11.57;2.22;;;;;;;6.85;100.00;102580.63;10166498;28;20148;-70
2021/11/23 08:46:26;;;;;;;9.82;2.13;;;;;;;6.87;100.00;102578.50;10149473;28;20562;-70
2021/11/23 08:51:26;;;;;;;13.15;2.17;;;;;;;6.97;100.00;102582.44;10162233;28;20554;-70
2021/11/23 08:56:23;;;;;;;11.02;1.92;;;;;;;7.00;100.00;102587.38;10159175;28;20124;-70
2021/11/23 09:01:24;;;;;;;15.02;2.17;;;;;;;7.10;100.00;102576.66;10146978;28;20086;-70
2021/11/23 09:06:24;;;;;;;7.80;1.85;;;;;;;7.25;100.00;102574.16;10141569;28;20135;-71
2021/11/23 09:11:23;;;;;;;8.68;1.83;;;;;;;7.45;100.00;102583.69;10143889;28;20142;-70
2021/11/23 09:16:20;;;;;;;11.60;1.50;;;;;;;7.54;100.00;102582.19;10140658;28;20070;-70
2021/11/23 09:21:17;;;;;;;13.30;1.95;;;;;;;7.52;100.00;102595.22;10150457;28;20057;-70
2021/11/23 09:26:14;;;;;;;15.90;1.95;;;;;;;7.54;100.00;102609.41;10146677;28;20052;-70
2021/11/23 09:31:11;;;;;;;11.35;1.92;;;;;;;7.60;100.00;102608.41;10156783;28;20144;-70
2021/11/23 09:36:07;;;;;;;12.68;1.77;;;;;;;7.77;100.00;102603.75;10156416;28;20503;-70
2021/11/23 09:41:05;;;;;;;13.52;2.28;;;;;;;7.92;100.00;102613.19;10158573;28;20145;-70
2021/11/23 09:46:02;;;;;;;14.02;1.80;;;;;;;8.01;100.00;102598.84;10153532;28;20076;-70
2021/11/23 09:50:59;;;;;;;11.30;1.98;;;;;;;8.19;100.00;102600.44;10160961;28;20075;-70
2021/11/23 09:55:56;;;;;;;13.70;2.00;;;;;;;8.13;100.00;102596.00;10155366;28;20093;-70
2021/11/23 10:01:00;;;;;;;9.20;2.10;;;;;;;8.27;100.00;102599.13;10163010;28;20631;-70
2021/11/23 10:06:11;;;;;;;10.57;2.05;;;;;;;8.29;100.00;102593.44;10168143;28;20050;-70
2021/11/23 10:11:09;;;;;;;9.68;2.08;;;;;;;8.47;100.00;102592.28;10148923;28;20069;-70
2021/11/23 10:16:06;;;;;;;10.65;1.85;;;;;;;8.51;100.00;102591.50;10162081;28;20088;-70
2021/11/23 10:21:24;;;;;;;18.70;3.05;;;;;;;8.59;100.00;102599.22;10163659;28;20053;-70
2021/11/23 10:26:31;;;;;;;8.93;1.75;;;;;;;8.44;100.00;102599.06;10136577;28;20101;-70
2021/11/23 10:31:33;;;;;;;10.35;1.58;;;;;;;8.26;100.00;102597.47;10140358;28;20050;-70
2021/11/23 10:36:33;;;;;;;11.75;1.88;;;;;;;8.32;100.00;102598.38;10141432;28;20129;-70
2021/11/23 10:41:30;;;;;;;11.45;2.22;;;;;;;8.39;100.00;102593.53;10169772;28;20101;-70
2021/11/23 10:46:30;;;;;;;7.43;1.67;;;;;;;8.43;100.00;102590.06;10159266;28;20072;-70
2021/11/23 10:51:38;;;;;;;9.70;1.63;;;;;;;8.41;100.00;102588.69;10167701;28;20049;-70
2021/11/23 10:56:54;;;;;;;12.13;1.70;;;;;;;8.56;100.00;102588.84;10161180;28;20038;-70
2021/11/23 11:01:51;;;;;;;12.00;2.35;;;;;;;8.56;100.00;102582.53;10153482;28;20576;-70
2021/11/23 11:06:49;;;;;;;10.13;1.45;;;;;;;8.60;100.00;102581.78;10153748;28;20116;-70
2021/11/23 11:11:46;;;;;;;8.85;1.15;;;;;;;8.56;100.00;102583.38;10142762;28;20050;-70
2021/11/23 11:16:43;;;;;;;9.15;1.13;;;;;;;8.63;100.00;102588.59;10132467;28;20476;-70
2021/11/23 11:22:03;;;;;;;12.02;1.52;;;;;;;8.80;100.00;102583.88;10114753;28;20049;-70
2021/11/23 11:27:13;;;;;;;11.73;1.05;;;;;;;8.91;100.00;102573.88;10118328;28;20825;-70
2021/11/23 11:32:35;;;;;;;13.02;2.20;;;;;;;8.99;100.00;102576.09;10119470;28;20391;-70
2021/11/23 11:37:35;;;;;;;10.40;1.85;;;;;;;9.10;100.00;102577.00;10130454;28;20483;-70
2021/11/23 11:42:34;;;;;;;7.68;1.23;;;;;;;9.16;100.00;102575.13;10121449;28;20113;-70
2021/11/23 11:47:32;;;;;;;5.47;1.48;;;;;;;9.23;100.00;102575.72;10118344;28;20610;-71
2021/11/23 11:52:33;;;;;;;7.05;1.40;;;;;;;9.20;100.00;102570.78;10116950;28;20137;-70
2021/11/23 11:57:30;;;;;;;7.15;0.98;;;;;;;9.09;100.00;102569.88;10120647;28;20050;-71
2021/11/23 12:02:27;;;;;;;7.13;1.38;;;;;;;9.06;100.00;102584.06;10134222;28;20070;-70
2021/11/23 12:07:36;;;;;;;4.15;0.80;;;;;;;8.99;100.00;102580.75;10132890;28;20157;-68
2021/11/23 12:12:42;;;;;;;7.97;0.80;;;;;;;8.82;100.00;102580.88;10158938;28;21604;-70
2021/11/23 12:17:57;;;;;;;6.35;0.50;;;;;;;8.55;100.00;102573.56;10145323;28;20104;-71
2021/11/23 12:23:11;;;;;;;4.43;0.95;;;;;;;8.51;100.00;102569.69;10147777;28;20453;-69
2021/11/23 12:28:07;;;;;;;6.70;0.93;;;;;;;8.50;100.00;102565.34;10155303;28;20075;-70
2021/11/23 12:33:04;;;;;;;4.30;0.68;;;;;;;8.43;100.00;102572.91;10140817;28;20554;-70
2021/11/23 12:38:00;;;;;;;8.60;1.73;;;;;;;8.37;100.00;102568.44;10156848;28;20096;-70
2021/11/23 12:43:03;;;;;;;8.80;1.30;;;;;;;8.44;100.00;102569.09;10156241;28;20524;-69
2021/11/23 12:48:01;;;;;;;7.15;1.30;;;;;;;9.02;100.00;102559.19;10150143;28;20516;-70
2021/11/23 12:53:05;;;;;;;8.02;1.17;;;;;;;9.38;100.00;102561.34;10137411;28;20830;-69
2021/11/23 12:58:03;;;;;;;5.25;1.10;;;;;;;9.23;100.00;102564.78;10125830;28;20056;-68
2021/11/23 13:03:00;;;;;;;14.15;1.92;;;;;;;9.22;100.00;102558.50;10131523;28;20088;-70
2021/11/23 13:08:05;;;;;;;9.88;2.08;;;;;;;9.12;100.00;102560.34;10122194;28;20497;-70
2021/11/23 13:13:11;;;;;;;7.25;1.10;;;;;;;9.04;100.00;102562.47;10143138;28;20069;-69
2021/11/23 13:18:08;;;;;;;10.80;1.10;;;;;;;9.03;100.00;102554.56;10135341;28;20085;-70
2021/11/23 13:23:19;;;;;;;9.95;2.25;;;;;;;9.16;100.00;102554.09;10136634;28;20046;-70
2021/11/23 13:28:16;;;;;;;10.93;1.70;;;;;;;9.29;100.00;102561.00;10153908;28;20069;-70
2021/11/23 13:33:28;;;;;;;12.32;2.50;;;;;;;9.26;100.00;102547.91;10155649;28;20495;-70
2021/11/23 13:38:26;;;;;;;11.73;2.13;;;;;;;9.24;100.00;102539.16;10164056;28;20050;-70
2021/11/23 13:43:23;;;;;;;8.85;1.88;;;;;;;9.08;100.00;102545.59;10142681;28;20535;-70
2021/11/23 13:48:19;;;;;;;11.25;1.48;;;;;;;9.05;100.00;102550.50;10146993;28;20038;-70
2021/11/23 13:53:16;;;;;;;13.20;1.30;;;;;;;8.92;100.00;102553.69;10147079;28;20046;-70
2021/11/23 13:58:12;;;;;;;8.00;1.42;;;;;;;8.90;100.00;102544.94;10138137;28;20161;-69
2021/11/23 14:03:12;;;;;;;9.55;1.38;;;;;;;8.99;100.00;102546.09;10126547;28;20560;-69
2021/11/23 14:08:14;;;;;;;10.00;1.30;;;;;;;9.03;100.00;102538.22;10114426;28;20057;-69
2021/11/23 14:13:17;;;;;;;15.32;2.00;;;;;;;9.04;100.00;102546.13;10137311;28;20047;-68
2021/11/23 14:18:16;;;;;;;12.13;1.77;;;;;;;9.11;100.00;102550.53;10131653;28;20089;-68
2021/11/23 14:23:43;;;;;;;12.73;1.45;;;;;;;9.05;100.00;102541.47;10133919;28;20124;-70
2021/11/23 14:29:05;;;;;;;14.13;1.55;;;;;;;8.94;100.00;102546.06;10137997;28;20070;-69
2021/11/23 14:34:13;;;;;;;9.07;1.30;;;;;;;8.82;100.00;102542.69;10139918;28;20153;-70
2021/11/23 14:39:11;;;;;;;11.45;1.55;;;;;;;8.80;100.00;102550.31;10143886;28;20507;-70
2021/11/23 14:44:09;;;;;;;5.40;1.05;;;;;;;8.70;100.00;102550.22;10133119;28;20100;-70
2021/11/23 14:49:06;;;;;;;8.75;1.30;;;;;;;8.63;100.00;102545.81;10124111;28;20134;-70
2021/11/23 14:54:03;;;;;;;9.13;2.20;;;;;;;8.58;100.00;102548.47;10128188;28;20077;-69
2021/11/23 14:59:01;;;;;;;4.85;0.90;;;;;;;8.43;100.00;102551.09;10125424;28;20097;-70
2021/11/23 15:03:57;;;;;;;8.38;1.33;;;;;;;8.36;100.00;102550.44;10133728;28;20465;-70
2021/11/23 15:08:54;;;;;;;11.52;1.73;;;;;;;8.27;100.00;102552.00;10127735;28;20058;-70
2021/11/23 15:13:52;;;;;;;6.15;1.13;;;;;;;8.18;100.00;102552.44;10135835;28;20046;-70
2021/11/23 15:18:48;;;;;;;6.25;1.10;;;;;;;8.13;100.00;102546.94;10148004;28;20042;-72
2021/11/23 15:23:46;;;;;;;7.25;1.30;;;;;;;8.13;100.00;102549.66;10140603;28;20050;-69
2021/11/23 15:28:42;;;;;;;11.57;1.75;;;;;;;8.06;100.00;102551.78;10140526;28;20223;-69
2021/11/23 15:33:39;;;;;;;5.93;1.20;;;;;;;8.08;100.00;102555.06;10138907;28;20098;-69
2021/11/23 15:38:36;;;;;;;5.78;1.23;;;;;;;8.08;100.00;102560.53;10128343;28;20047;-70
2021/11/23 15:43:33;;;;;;;8.50;1.92;;;;;;;8.05;100.00;102563.72;10128653;28;20058;-69
2021/11/23 15:48:29;;;;;;;14.38;1.48;;;;;;;8.07;100.00;102569.75;10141455;28;20046;-69
2021/11/23 15:53:26;;;;;;;8.25;1.02;;;;;;;8.11;100.00;102565.44;10138974;28;20047;-69
2021/11/23 15:58:24;;;;;;;8.85;1.55;;;;;;;8.14;100.00;102575.00;10142431;28;20494;-69
2021/11/23 16:03:21;;;;;;;7.30;1.10;;;;;;;8.09;100.00;102578.50;10138136;28;20397;-70
2021/11/23 16:08:18;;;;;;;7.63;1.30;;;;;;;8.01;100.00;102565.34;10141478;28;20045;-69
2021/11/23 16:13:16;;;;;;;11.57;1.48;;;;;;;7.90;100.00;102575.28;10137063;28;20066;-69
2021/11/23 16:18:13;;;;;;;6.47;1.08;;;;;;;7.97;100.00;102575.09;10129080;28;20457;-69
2021/11/23 16:23:24;;;;;;;7.50;1.30;;;;;;;8.08;100.00;102571.41;10144274;28;20488;-69
2021/11/23 16:28:21;;;;;;;9.15;1.13;;;;;;;8.10;100.00;102569.25;10143581;28;20420;-69
2021/11/23 16:33:18;;;;;;;13.20;1.98;;;;;;;8.03;100.00;102571.38;10142122;28;20702;-69
2021/11/23 16:38:15;;;;;;;5.47;1.00;;;;;;;7.97;100.00;102569.66;10127081;28;20050;-69
2021/11/23 16:43:11;;;;;;;6.25;1.00;;;;;;;7.98;100.00;102565.84;10148635;28;20088;-69
2021/11/23 16:48:07;;;;;;;7.85;1.13;;;;;;;7.96;100.00;102568.00;10148828;28;20465;-69
2021/11/23 16:53:04;;;;;;;6.90;1.33;;;;;;;7.92;100.00;102572.31;10138806;28;20054;-70
2021/11/23 16:58:01;;;;;;;9.93;2.17;;;;;;;7.86;100.00;102567.88;10151585;28;20104;-69
2021/11/23 17:02:57;;;;;;;5.82;1.10;;;;;;;7.92;100.00;102566.88;10153519;28;20043;-69
2021/11/23 17:07:54;;;;;;;5.38;1.00;;;;;;;7.82;100.00;102575.75;10141867;28;20116;-69
2021/11/23 17:12:50;;;;;;;9.50;1.20;;;;;;;7.76;100.00;102580.28;10153448;28;20062;-69
2021/11/23 17:17:47;;;;;;;8.23;1.17;;;;;;;7.76;100.00;102583.03;10148522;28;20077;-69
2021/11/23 17:22:45;;;;;;;7.05;1.30;;;;;;;7.76;100.00;102585.75;10135017;28;20572;-69
2021/11/23 17:27:42;;;;;;;6.63;1.30;;;;;;;7.86;100.00;102584.22;10125113;28;20054;-69
2021/11/23 17:32:38;;;;;;;12.77;1.73;;;;;;;7.90;100.00;102582.66;10126473;28;20054;-69
2021/11/23 17:37:35;;;;;;;7.40;1.38;;;;;;;7.98;100.00;102579.47;10127741;28;20468;-70
2021/11/23 17:42:33;;;;;;;12.70;1.73;;;;;;;7.99;100.00;102579.22;10139124;28;20444;-69
2021/11/23 17:47:32;;;;;;;5.82;1.30;;;;;;;7.99;100.00;102575.66;10138325;28;20047;-69
2021/11/23 17:52:28;;;;;;;7.70;1.55;;;;;;;7.96;100.00;102585.19;10129423;28;20038;-69
2021/11/23 17:57:29;;;;;;;5.03;1.50;;;;;;;7.98;100.00;102582.19;10128029;28;20046;-69
2021/11/23 18:02:26;;;;;;;8.57;1.42;;;;;;;7.89;100.00;102581.84;10138848;28;20046;-69
2021/11/23 18:07:23;;;;;;;9.05;2.00;;;;;;;7.85;100.00;102582.59;10146475;28;20051;-68
2021/11/23 18:12:21;;;;;;;6.82;1.83;;;;;;;7.82;100.00;102583.94;10132118;28;20527;-69
2021/11/23 18:17:18;;;;;;;7.68;1.80;;;;;;;7.72;100.00;102584.59;10124455;28;20074;-69
2021/11/23 18:22:16;;;;;;;7.50;1.83;;;;;;;7.63;100.00;102577.94;10129606;28;20041;-69
2021/11/23 18:27:14;;;;;;;7.43;2.45;;;;;;;7.61;100.00;102580.09;10125591;28;20138;-70
2021/11/23 18:32:12;;;;;;;8.38;2.20;;;;;;;7.68;100.00;102583.47;10141240;28;20057;-69
2021/11/23 18:37:08;;;;;;;9.23;2.10;;;;;;;7.63;100.00;102580.66;10143583;28;20128;-69
2021/11/23 18:42:05;;;;;;;8.68;2.60;;;;;;;7.65;100.00;102578.50;10133546;28;20052;-69
2021/11/23 18:47:03;;;;;;;6.88;2.67;;;;;;;7.56;100.00;102582.75;10148098;28;20057;-69
2021/11/23 18:52:01;;;;;;;9.13;3.28;;;;;;;7.52;100.00;102585.16;10160558;28;20753;-69
2021/11/23 18:56:57;;;;;;;6.15;2.42;;;;;;;7.44;100.00;102582.03;10162847;28;20046;-68
2021/11/23 19:01:54;;;;;;;11.98;3.78;;;;;;;7.40;100.00;102575.44;10159333;28;20485;-68
2021/11/23 19:06:50;;;;;;;7.95;3.00;;;;;;;7.44;100.00;102576.59;10140515;28;20093;-69
2021/11/23 19:11:47;;;;;;;11.23;3.50;;;;;;;7.33;100.00;102584.63;10130111;28;20583;-69
2021/11/23 19:16:44;;;;;;;8.52;3.50;;;;;;;7.34;100.00;102580.81;10131594;28;20053;-69
2021/11/23 19:21:40;;;;;;;10.32;3.90;;;;;;;7.35;100.00;102579.75;10133825;28;20070;-68
2021/11/23 19:26:37;;;;;;;8.38;3.83;;;;;;;7.37;100.00;102577.59;10134077;28;20047;-69
2021/11/23 19:31:34;;;;;;;13.95;5.50;;;;;;;7.26;100.00;102589.41;10142872;28;20629;-69
2021/11/23 19:36:31;;;;;;;15.48;6.45;;;;;;;7.32;100.00;102585.69;10139242;28;20046;-68
2021/11/23 19:41:30;;;;;;;11.05;5.85;;;;;;;7.30;100.00;102597.91;10151953;28;20042;-69
2021/11/23 19:46:28;;;;;;;15.82;6.70;;;;;;;7.30;100.00;102593.28;10140987;28;20072;-69
2021/11/23 19:51:28;;;;;;;17.35;6.88;;;;;;;7.29;100.00;102588.09;10151151;28;20038;-69
2021/11/23 19:56:25;;;;;;;12.02;6.10;;;;;;;7.29;100.00;102585.38;10137905;28;20043;-69
2021/11/23 20:01:23;;;;;;;10.77;5.68;;;;;;;7.27;100.00;102591.06;10155324;28;20038;-69
2021/11/23 20:06:20;;;;;;;19.20;8.27;;;;;;;7.26;100.00;102578.53;10145717;28;20050;-69
2021/11/23 20:11:17;;;;;;;11.55;5.40;;;;;;;7.22;100.00;102585.56;10163152;28;20523;-69
2021/11/23 20:16:15;;;;;;;16.98;6.47;;;;;;;7.25;100.00;102578.78;10163863;28;20050;-69
2021/11/23 20:21:12;;;;;;;14.20;6.70;;;;;;;7.31;100.00;102589.50;10183248;28;20812;-69
2021/11/23 20:26:10;;;;;;;13.32;6.53;;;;;;;7.42;100.00;102589.63;10170735;28;20041;-69
2021/11/23 20:31:07;;;;;;;15.75;7.53;;;;;;;7.53;100.00;102594.16;10179879;28;20089;-69
2021/11/23 20:36:08;;;;;;;12.98;6.00;;;;;;;7.53;100.00;102585.97;10150779;28;20734;-68
2021/11/23 20:41:05;;;;;;;15.00;5.93;;;;;;;7.59;100.00;102576.81;10152967;28;20053;-68
2021/11/23 20:46:02;;;;;;;15.80;5.88;;;;;;;7.58;100.00;102577.88;10156964;28;20046;-67
2021/11/23 20:50:59;;;;;;;8.50;5.00;;;;;;;7.60;100.00;102570.28;10149384;28;20046;-68
2021/11/23 20:55:56;;;;;;;18.88;6.18;;;;;;;7.57;100.00;102570.81;10147884;28;20583;-68
2021/11/23 21:00:52;;;;;;;10.82;4.97;;;;;;;7.43;100.00;102567.63;10158103;28;20070;-69
2021/11/23 21:06:06;;;;;;;11.30;4.82;;;;;;;7.36;100.00;102562.34;10140716;28;20046;-69
2021/11/23 21:11:02;;;;;;;13.82;5.60;;;;;;;7.27;100.00;102552.97;10144216;28;20074;-69
2021/11/23 21:15:59;;;;;;;13.95;4.80;;;;;;;7.27;100.00;102555.69;10140363;28;20054;-71
2021/11/23 21:20:56;;;;;;;12.57;5.45;;;;;;;7.30;100.00;102560.63;10128398;28;20070;-70
2021/11/23 21:25:53;;;;;;;13.32;5.07;;;;;;;7.31;100.00;102556.84;10128118;28;20046;-70
2021/11/23 21:30:49;;;;;;;17.02;5.60;;;;;;;7.26;100.00;102548.59;10122544;28;20106;-71
2021/11/23 21:35:46;;;;;;;14.40;5.38;;;;;;;7.31;100.00;102545.97;10138404;28;20050;-71
2021/11/23 21:40:43;;;;;;;12.52;5.90;;;;;;;7.19;100.00;102547.94;10133300;28;20046;-71
2021/11/23 21:50:46;;;;;;;14.70;6.10;;;;;;;7.13;100.00;102543.53;10142977;28;20042;-71
2021/11/23 21:55:43;;;;;;;11.82;6.90;;;;;;;7.09;100.00;102547.81;10151359;28;20042;-70
2021/11/23 22:00:41;;;;;;;17.05;6.70;;;;;;;7.00;100.00;102543.88;10151103;28;20500;-72
2021/11/23 22:05:38;;;;;;;9.95;5.65;;;;;;;6.90;100.00;102555.41;10152275;28;20094;-72
2021/11/23 22:10:37;;;;;;;13.27;6.22;;;;;;;6.92;100.00;102559.53;10149412;28;20042;-72
2021/11/23 22:15:35;;;;;;;17.83;9.45;;;;;;;6.80;100.00;102566.97;10154617;28;20140;-72
2021/11/23 22:20:32;;;;;;;23.58;11.15;;;;;;;6.74;100.00;102557.06;10145150;28;20163;-72
2021/11/23 22:25:29;;;;;;;15.93;10.43;;;;;;;6.78;100.00;102562.81;10144783;28;20055;-71
2021/11/23 22:30:26;;;;;;;26.40;14.65;;;;;;;6.66;100.00;102555.59;10145332;28;20100;-71
2021/11/23 22:35:24;;;;;;;27.27;14.40;;;;;;;6.80;100.00;102549.78;10162693;28;20411;-70
2021/11/23 22:40:21;;;;;;;31.63;15.18;;;;;;;6.82;100.00;102544.94;10156021;28;20444;-70